Time;durP1;ratioP1;P1;durP2;ratioP2;P2;SDS_P1;SDS_P2;PMS_P1;PMS_P2;Temp;Humidity;BMP_temperature;BMP_pressure;BME280_temperature;BME280_humidity;BME280_pressure;Samples;Min_cycle;Max_cycle;Signal;HPM_P1;HPM_P2
2022/10/31 00:01:32;;;;;;;4.75;2.70;;;;;;;10.36;74.21;101486.83;1769732;79;27530;-62
2022/10/31 00:04:00;;;;;;;9.78;3.10;;;;;;;10.37;74.32;101493.48;1816736;78;25734;-62
2022/10/31 00:06:29;;;;;;;5.05;2.67;;;;;;;10.33;73.88;101494.66;1817028;78;25809;-62
2022/10/31 00:09:02;;;;;;;3.27;2.60;;;;;;;10.32;73.69;101498.31;1816900;79;25989;-62
2022/10/31 00:11:29;;;;;;;8.33;3.23;;;;;;;10.32;73.75;101499.19;1817221;78;25698;-62
2022/10/31 00:14:00;;;;;;;4.65;2.85;;;;;;;10.32;73.84;101498.31;1816708;78;27628;-61
2022/10/31 00:16:29;;;;;;;5.92;2.70;;;;;;;10.27;73.61;101504.54;1816796;79;25476;-62
2022/10/31 00:19:00;;;;;;;8.85;3.10;;;;;;;10.25;73.60;101507.83;1789872;79;25663;-62
2022/10/31 00:21:29;;;;;;;7.22;3.33;;;;;;;10.25;73.91;101506.48;1816707;79;26472;-62
2022/10/31 00:23:58;;;;;;;5.55;3.20;;;;;;;10.23;73.71;101499.88;1817334;78;25758;-62
2022/10/31 00:26:29;;;;;;;6.60;2.98;;;;;;;10.26;74.00;101510.89;1816875;79;28200;-62
2022/10/31 00:28:57;;;;;;;7.12;3.17;;;;;;;10.23;73.93;101509.30;1816873;78;25746;-61
2022/10/31 00:31:25;;;;;;;8.28;3.47;;;;;;;10.25;74.20;101505.13;1816562;78;25826;-62
2022/10/31 00:33:52;;;;;;;8.30;4.25;;;;;;;10.25;74.14;101504.67;1817039;78;26153;-61
2022/10/31 00:36:20;;;;;;;10.50;3.30;;;;;;;10.25;74.13;101494.37;1816795;78;25808;-61
2022/10/31 00:38:48;;;;;;;5.22;3.60;;;;;;;10.26;74.08;101505.51;1817260;78;27519;-61
2022/10/31 00:41:17;;;;;;;9.80;3.62;;;;;;;10.28;74.15;101496.34;1816906;78;26401;-62
2022/10/31 00:43:45;;;;;;;5.85;3.98;;;;;;;10.32;74.15;101497.84;1816880;78;25735;-61
2022/10/31 00:46:14;;;;;;;6.12;3.27;;;;;;;10.37;74.36;101495.27;1816848;78;25774;-61
2022/10/31 00:48:42;;;;;;;7.92;3.42;;;;;;;10.42;74.37;101492.64;1817136;78;25765;-61
2022/10/31 00:51:10;;;;;;;6.97;3.87;;;;;;;10.48;74.35;101488.16;1816570;78;27449;-62
2022/10/31 00:53:38;;;;;;;6.83;4.10;;;;;;;10.50;74.20;101490.72;1816909;79;25765;-61
2022/10/31 00:56:06;;;;;;;5.70;3.62;;;;;;;10.51;74.08;101494.25;1816814;79;25260;-62
2022/10/31 00:58:34;;;;;;;6.47;4.28;;;;;;;10.51;73.96;101492.43;1793957;79;25780;-61
2022/10/31 01:01:02;;;;;;;10.50;3.37;;;;;;;10.47;73.95;101485.56;1787538;79;25750;-61
2022/10/31 01:03:33;;;;;;;5.60;3.77;;;;;;;10.45;73.91;101492.88;1775340;79;27377;-61
2022/10/31 01:06:04;;;;;;;10.45;4.45;;;;;;;10.41;73.81;101492.77;1765930;81;25879;-62
2022/10/31 01:08:34;;;;;;;9.45;4.17;;;;;;;10.32;73.84;101489.77;1766161;81;25849;-61
2022/10/31 01:11:15;;;;;;;11.38;4.40;;;;;;;10.24;73.89;101495.35;1765758;79;25918;-61
2022/10/31 01:13:44;;;;;;;7.17;4.35;;;;;;;10.19;74.08;101494.35;1766218;81;25936;-61
2022/10/31 01:16:16;;;;;;;9.83;4.15;;;;;;;10.13;74.10;101494.83;1765773;80;27513;-61
2022/10/31 01:18:44;;;;;;;10.82;5.20;;;;;;;10.08;74.09;101488.95;1765948;81;25771;-60
2022/10/31 01:21:22;;;;;;;15.95;5.12;;;;;;;10.00;74.04;101486.33;1765784;81;25252;-61
2022/10/31 01:23:51;;;;;;;11.83;5.78;;;;;;;9.95;74.05;101489.86;1738071;81;25764;-61
2022/10/31 01:26:26;;;;;;;11.43;5.03;;;;;;;9.88;74.27;101484.58;1737852;81;25800;-60
2022/10/31 01:28:58;;;;;;;17.17;5.62;;;;;;;9.82;74.42;101480.98;1739208;81;27565;-61
2022/10/31 01:31:29;;;;;;;9.40;4.60;;;;;;;9.77;74.52;101476.44;1766163;81;25891;-61
2022/10/31 01:33:58;;;;;;;10.78;4.25;;;;;;;9.76;74.70;101478.75;1766362;81;25803;-60
2022/10/31 01:36:35;;;;;;;11.28;4.78;;;;;;;9.73;74.82;101478.50;1765969;80;26583;-61
2022/10/31 01:39:08;;;;;;;10.70;4.05;;;;;;;9.71;74.98;101472.38;1766127;79;25720;-61
2022/10/31 01:41:39;;;;;;;17.05;4.80;;;;;;;9.70;75.17;101469.31;1765846;81;27897;-61
2022/10/31 01:44:20;;;;;;;22.30;4.35;;;;;;;9.70;75.18;101467.97;1739429;81;25687;-62
2022/10/31 01:47:05;;;;;;;13.65;4.42;;;;;;;9.71;75.37;101473.25;1765896;81;25861;-62
2022/10/31 01:49:55;;;;;;;11.38;4.78;;;;;;;9.68;75.26;101468.09;1766349;80;26140;-61
2022/10/31 01:52:31;;;;;;;13.15;4.35;;;;;;;9.67;75.57;101462.84;1765961;79;25776;-62
2022/10/31 01:55:08;;;;;;;7.83;4.53;;;;;;;9.63;75.48;101468.05;1766011;81;27247;-61
2022/10/31 01:57:38;;;;;;;6.58;4.22;;;;;;;9.62;75.66;101469.90;1772472;80;26861;-61
2022/10/31 02:00:09;;;;;;;13.05;3.90;;;;;;;9.64;75.68;101477.33;1787680;78;25746;-61
2022/10/31 02:02:44;;;;;;;15.30;4.50;;;;;;;9.68;75.79;101480.69;1795866;78;25936;-61
2022/10/31 02:05:16;;;;;;;13.28;4.60;;;;;;;9.66;75.78;101498.23;1813647;79;25707;-60
2022/10/31 02:07:55;;;;;;;15.53;4.87;;;;;;;9.62;75.77;101496.77;1813666;79;28299;-61
2022/10/31 02:10:25;;;;;;;11.05;5.83;;;;;;;9.61;75.80;101498.20;1800415;79;25996;-60
2022/10/31 02:12:56;;;;;;;16.52;5.25;;;;;;;9.62;77.18;101493.20;1813615;77;25659;-60
2022/10/31 02:15:23;;;;;;;11.12;5.10;;;;;;;9.68;78.15;101488.74;1813750;79;25720;-60
2022/10/31 02:17:51;;;;;;;11.95;5.40;;;;;;;9.75;77.99;101490.00;1813641;78;25777;-61
2022/10/31 02:20:22;;;;;;;9.55;5.10;;;;;;;9.81;78.53;101495.41;1814021;79;28158;-61
2022/10/31 02:23:28;;;;;;;11.50;5.90;;;;;;;9.86;78.14;101491.88;1813429;78;25672;-61
2022/10/31 02:26:19;;;;;;;17.45;5.70;;;;;;;9.95;78.07;101497.92;1813560;78;25809;-61
2022/10/31 02:29:12;;;;;;;9.33;5.37;;;;;;;10.08;77.82;101505.08;1812966;78;25781;-61
2022/10/31 02:32:02;;;;;;;13.78;4.87;;;;;;;10.17;77.81;101503.05;1812502;78;25743;-61
2022/10/31 02:34:41;;;;;;;10.55;5.50;;;;;;;10.26;77.64;101509.55;1813567;77;27495;-61
2022/10/31 02:37:17;;;;;;;14.58;5.97;;;;;;;10.36;77.81;101511.91;1812612;78;25743;-61
2022/10/31 02:39:55;;;;;;;13.95;5.15;;;;;;;10.42;77.61;101516.84;1813706;78;25699;-61
2022/10/31 02:42:41;;;;;;;16.30;5.65;;;;;;;10.50;77.57;101518.96;1812217;79;25963;-61
2022/10/31 02:45:35;;;;;;;12.33;6.03;;;;;;;10.60;77.63;101519.09;1783608;80;25858;-63
2022/10/31 02:48:12;;;;;;;13.03;5.92;;;;;;;10.71;77.71;101520.48;1814056;77;27421;-61
2022/10/31 02:50:46;;;;;;;11.60;4.90;;;;;;;10.83;77.80;101520.02;1813254;79;25694;-61
2022/10/31 02:53:15;;;;;;;10.35;5.65;;;;;;;10.91;77.90;101511.35;1814027;79;25786;-61
2022/10/31 02:55:51;;;;;;;9.18;5.58;;;;;;;11.01;77.87;101516.38;1813706;78;26029;-61
2022/10/31 02:58:22;;;;;;;12.80;5.70;;;;;;;11.07;77.67;101515.89;1799421;79;27325;-61
2022/10/31 03:01:38;;;;;;;18.45;5.62;;;;;;;11.13;77.73;101507.82;1793137;80;27469;-61
2022/10/31 03:04:28;;;;;;;16.60;5.83;;;;;;;11.17;77.63;101508.43;1812062;78;26024;-61
2022/10/31 03:07:13;;;;;;;15.50;7.03;;;;;;;11.23;77.76;101514.19;1805621;78;25806;-61
2022/10/31 03:09:51;;;;;;;18.15;8.90;;;;;;;11.29;77.86;101520.93;1800580;79;25862;-60
2022/10/31 03:12:38;;;;;;;16.70;9.78;;;;;;;11.25;78.48;101517.59;1806394;78;25798;-61
2022/10/31 03:15:34;;;;;;;17.57;9.05;;;;;;;11.21;79.03;101518.84;1806626;79;27131;-61
2022/10/31 03:18:22;;;;;;;23.60;11.70;;;;;;;11.19;79.49;101518.09;1808004;79;25802;-61
2022/10/31 03:20:57;;;;;;;22.70;10.63;;;;;;;11.15;80.54;101516.64;1809299;79;25778;-61
2022/10/31 03:23:25;;;;;;;26.40;11.83;;;;;;;11.12;80.60;101518.22;1807072;79;25872;-61
2022/10/31 03:25:55;;;;;;;20.50;10.75;;;;;;;11.09;81.23;101517.98;1808911;79;25723;-61
2022/10/31 03:28:28;;;;;;;16.65;10.90;;;;;;;11.01;81.07;101514.16;1808555;79;27636;-61
2022/10/31 03:30:58;;;;;;;22.80;10.60;;;;;;;10.96;82.04;101512.70;1809500;79;25710;-61
2022/10/31 03:33:32;;;;;;;20.62;10.88;;;;;;;10.88;81.19;101523.22;1808949;79;25815;-61
2022/10/31 03:36:02;;;;;;;22.67;10.88;;;;;;;10.83;80.90;101521.36;1764479;81;25759;-61
2022/10/31 03:38:32;;;;;;;20.60;11.88;;;;;;;10.79;80.79;101526.13;1809367;79;25603;-61
2022/10/31 03:41:03;;;;;;;20.85;11.15;;;;;;;10.75;80.50;101525.13;1809195;79;27466;-61
2022/10/31 03:43:36;;;;;;;20.43;11.18;;;;;;;10.68;80.62;101525.25;1808965;79;25773;-61
2022/10/31 03:46:04;;;;;;;32.53;12.93;;;;;;;10.60;80.27;101524.48;1809401;79;25726;-61
2022/10/31 03:48:32;;;;;;;16.65;10.98;;;;;;;10.51;80.64;101530.09;1784731;79;26676;-61
2022/10/31 03:51:20;;;;;;;21.70;10.08;;;;;;;10.44;80.58;101532.89;1809182;79;25441;-61
2022/10/31 03:54:11;;;;;;;27.80;12.58;;;;;;;10.31;81.29;101527.05;1809310;79;27315;-61
2022/10/31 03:56:59;;;;;;;19.57;10.28;;;;;;;10.21;81.02;101527.87;1809262;77;25715;-60
2022/10/31 03:59:32;;;;;;;21.80;11.50;;;;;;;10.10;81.51;101527.30;1794533;78;25801;-61
2022/10/31 04:02:14;;;;;;;19.52;12.20;;;;;;;9.96;82.18;101514.89;1795274;79;25839;-61
2022/10/31 04:04:45;;;;;;;21.35;11.60;;;;;;;9.89;82.01;101515.86;1787586;79;25842;-61
2022/10/31 04:07:15;;;;;;;18.85;10.82;;;;;;;9.81;83.30;101521.78;1756344;80;28585;-61
2022/10/31 04:09:45;;;;;;;20.08;11.40;;;;;;;9.76;82.76;101525.78;1755265;81;25763;-61
2022/10/31 04:12:15;;;;;;;18.90;11.30;;;;;;;9.75;82.56;101524.94;1786690;80;25802;-61
2022/10/31 04:15:03;;;;;;;25.95;12.33;;;;;;;9.72;82.62;101522.45;1755518;81;25808;-61
2022/10/31 04:17:35;;;;;;;26.65;12.63;;;;;;;9.75;82.73;101528.09;1756351;80;25664;-61
2022/10/31 04:20:03;;;;;;;25.10;11.97;;;;;;;9.79;82.66;101530.44;1755335;81;27517;-61
2022/10/31 04:22:31;;;;;;;21.48;11.22;;;;;;;9.80;82.57;101525.94;1749152;81;25835;-61
2022/10/31 04:25:00;;;;;;;22.50;11.38;;;;;;;9.85;82.65;101529.13;1786726;80;25738;-61
2022/10/31 04:27:27;;;;;;;26.87;12.68;;;;;;;9.88;82.30;101528.92;1755648;81;25805;-61
2022/10/31 04:29:54;;;;;;;27.60;12.73;;;;;;;9.92;82.28;101529.05;1781801;80;27441;-61
2022/10/31 04:32:21;;;;;;;21.00;11.28;;;;;;;9.92;81.87;101528.20;1786805;80;27466;-61
2022/10/31 04:34:48;;;;;;;24.40;11.60;;;;;;;9.89;81.70;101526.61;1755320;81;25720;-61
2022/10/31 04:37:15;;;;;;;23.85;12.82;;;;;;;9.85;81.63;101523.75;1786622;80;25651;-61
2022/10/31 04:39:42;;;;;;;25.37;12.30;;;;;;;9.87;81.96;101520.48;1786947;80;25766;-61
2022/10/31 04:42:31;;;;;;;22.05;11.63;;;;;;;9.87;81.75;101528.05;1755482;81;25745;-61
2022/10/31 04:44:59;;;;;;;21.33;10.53;;;;;;;9.84;81.22;101524.25;1786610;80;28146;-61
2022/10/31 04:47:27;;;;;;;23.42;11.08;;;;;;;9.87;81.33;101532.58;1786221;80;25839;-61
2022/10/31 04:49:54;;;;;;;19.23;10.08;;;;;;;9.85;80.99;101531.82;1755029;81;25740;-61
2022/10/31 04:52:22;;;;;;;23.38;11.15;;;;;;;9.84;81.03;101536.35;1714338;82;25801;-61
2022/10/31 04:54:49;;;;;;;21.75;9.93;;;;;;;9.87;81.29;101532.58;1782983;80;25710;-61
2022/10/31 04:57:47;;;;;;;17.15;10.68;;;;;;;9.88;81.19;101530.27;1790343;79;28342;-61
2022/10/31 05:00:19;;;;;;;26.85;12.50;;;;;;;9.88;81.78;101545.05;1802785;79;26015;-62
2022/10/31 05:02:49;;;;;;;17.87;9.68;;;;;;;9.81;82.55;101545.13;1805983;79;26078;-61
2022/10/31 05:05:21;;;;;;;18.98;9.70;;;;;;;9.77;83.50;101550.34;1813444;79;25802;-62
2022/10/31 05:07:50;;;;;;;;;;;;;;;9.76;82.86;101547.27;1815346;79;25757;-62
2022/10/31 05:10:22;;;;;;;39.10;10.93;;;;;;;9.70;82.03;101552.13;1813610;79;27667;-61
2022/10/31 05:12:53;;;;;;;22.32;10.93;;;;;;;9.67;81.96;101560.91;1813621;79;25624;-61
2022/10/31 05:15:38;;;;;;;23.85;11.30;;;;;;;9.68;81.86;101555.41;1813756;79;25801;-62
2022/10/31 05:18:08;;;;;;;37.15;17.48;;;;;;;9.68;81.41;101559.94;1813663;79;26981;-62
2022/10/31 05:20:53;;;;;;;41.53;16.32;;;;;;;9.73;81.51;101568.52;1813632;79;25733;-62
2022/10/31 05:23:23;;;;;;;39.05;15.38;;;;;;;9.75;81.44;101570.61;1811263;78;28169;-61
2022/10/31 05:25:50;;;;;;;22.30;12.05;;;;;;;9.80;81.45;101567.59;1813426;79;25679;-62
2022/10/31 05:28:18;;;;;;;36.93;13.48;;;;;;;9.86;81.44;101571.16;1814095;79;25727;-62
2022/10/31 05:30:44;;;;;;;21.42;11.28;;;;;;;9.93;81.26;101580.48;1813564;78;25873;-62
2022/10/31 05:33:13;;;;;;;26.25;11.68;;;;;;;9.97;80.85;101584.69;1813503;79;25732;-62
2022/10/31 05:35:59;;;;;;;22.42;11.38;;;;;;;9.99;80.63;101579.19;1813556;79;28346;-64
2022/10/31 05:38:31;;;;;;;21.55;10.00;;;;;;;10.03;80.35;101585.56;1812132;79;25924;-61
2022/10/31 05:41:03;;;;;;;22.17;11.60;;;;;;;10.06;79.91;101591.70;1813433;78;25745;-61
2022/10/31 05:43:31;;;;;;;19.32;10.25;;;;;;;10.08;79.60;101596.48;1813670;79;25679;-62
2022/10/31 05:46:03;;;;;;;19.62;10.25;;;;;;;10.09;79.48;101591.45;1813620;79;26165;-61
2022/10/31 05:48:31;;;;;;;20.60;11.45;;;;;;;10.10;79.47;101597.20;1772005;79;28024;-61
2022/10/31 05:51:09;;;;;;;20.12;10.70;;;;;;;10.09;79.17;101593.67;1721640;83;25706;-61
2022/10/31 05:53:36;;;;;;;27.32;11.90;;;;;;;10.08;78.92;101595.98;1856825;77;25750;-61
2022/10/31 05:56:06;;;;;;;16.62;11.08;;;;;;;10.02;78.40;101591.91;1856386;77;25708;-61
2022/10/31 05:58:35;;;;;;;22.17;10.53;;;;;;;9.99;78.37;101596.19;1832849;77;26010;-61
2022/10/31 06:01:06;;;;;;;18.23;11.70;;;;;;;9.96;78.13;101597.75;1826033;78;27727;-61
2022/10/31 06:03:33;;;;;;;20.85;11.05;;;;;;;9.92;78.12;101602.95;1843526;77;25891;-61
2022/10/31 06:06:02;;;;;;;28.92;11.50;;;;;;;9.90;78.06;101606.27;1855987;77;25771;-62
2022/10/31 06:08:31;;;;;;;21.35;12.78;;;;;;;9.85;78.17;101603.91;1856059;77;25805;-62
2022/10/31 06:11:00;;;;;;;23.98;14.10;;;;;;;9.86;78.26;101606.95;1856024;77;25792;-62
2022/10/31 06:13:31;;;;;;;23.27;12.75;;;;;;;9.79;78.42;101599.45;1813727;77;28270;-61
2022/10/31 06:16:05;;;;;;;24.92;12.47;;;;;;;9.89;78.37;101610.39;1854107;77;25713;-62
2022/10/31 06:18:34;;;;;;;24.10;12.33;;;;;;;9.93;78.29;101606.02;1855599;77;25827;-62
2022/10/31 06:21:02;;;;;;;22.87;12.30;;;;;;;9.98;78.49;101601.66;1856286;77;25763;-61
2022/10/31 06:23:29;;;;;;;30.35;15.32;;;;;;;10.02;78.73;101598.63;1856221;77;25704;-62
2022/10/31 06:25:58;;;;;;;42.43;18.87;;;;;;;10.12;79.36;101593.92;1851647;77;27840;-62
2022/10/31 06:28:25;;;;;;;33.58;18.25;;;;;;;10.25;80.03;101600.59;1856573;77;26124;-62
2022/10/31 06:30:59;;;;;;;47.50;21.85;;;;;;;10.36;80.36;101611.89;1853600;77;25796;-62
2022/10/31 06:33:27;;;;;;;35.10;20.32;;;;;;;10.38;80.63;101616.71;1856415;77;25780;-62
2022/10/31 06:35:56;;;;;;;49.27;21.05;;;;;;;10.39;80.96;101618.43;1854949;77;26238;-62
2022/10/31 06:38:23;;;;;;;43.52;18.23;;;;;;;10.43;81.50;101612.71;1856768;77;28276;-62
2022/10/31 06:40:50;;;;;;;38.53;19.17;;;;;;;10.52;81.44;101614.34;1856268;77;25678;-62
2022/10/31 06:43:23;;;;;;;49.60;20.82;;;;;;;10.59;81.85;101616.47;1841699;76;25717;-62
2022/10/31 06:45:52;;;;;;;34.60;19.87;;;;;;;10.72;82.00;101621.77;1821079;76;26524;-62
2022/10/31 06:48:21;;;;;;;31.62;18.27;;;;;;;10.82;81.88;101621.92;1816976;78;25801;-62
2022/10/31 06:51:03;;;;;;;38.75;17.60;;;;;;;10.93;81.92;101621.97;1769569;77;27671;-61
2022/10/31 06:53:30;;;;;;;39.67;18.77;;;;;;;11.07;81.79;101621.41;1856714;77;26215;-61
2022/10/31 06:55:59;;;;;;;37.90;17.95;;;;;;;11.15;81.92;101617.63;1856328;77;25691;-61
2022/10/31 06:58:27;;;;;;;38.50;19.62;;;;;;;11.11;81.63;101616.13;1832053;77;26746;-61
2022/10/31 07:01:00;;;;;;;36.15;17.95;;;;;;;11.07;81.83;101624.10;1822674;78;25821;-64
2022/10/31 07:03:27;;;;;;;35.17;20.00;;;;;;;11.12;82.02;101617.86;1833487;77;28305;-61
2022/10/31 07:05:58;;;;;;;32.58;18.25;;;;;;;11.22;82.25;101628.28;1820109;77;25473;-61
2022/10/31 07:08:25;;;;;;;32.93;18.05;;;;;;;11.33;82.34;101626.09;1846033;77;25473;-61
2022/10/31 07:10:57;;;;;;;33.60;16.37;;;;;;;11.41;82.22;101623.66;1845570;77;25744;-61
2022/10/31 07:13:25;;;;;;;31.55;16.85;;;;;;;11.51;82.34;101622.45;1845903;77;25704;-61
2022/10/31 07:16:00;;;;;;;30.75;15.38;;;;;;;11.62;81.81;101623.41;1845677;77;27709;-61
2022/10/31 07:18:28;;;;;;;27.07;14.98;;;;;;;11.65;81.66;101631.27;1845879;77;25706;-61
2022/10/31 07:20:55;;;;;;;32.42;15.30;;;;;;;11.69;81.87;101620.12;1848258;77;25702;-61
2022/10/31 07:23:22;;;;;;;29.63;14.15;;;;;;;11.78;81.96;101621.70;1845915;77;25955;-61
2022/10/31 07:25:59;;;;;;;25.00;13.50;;;;;;;11.79;81.62;101623.42;1845511;77;25702;-61
2022/10/31 07:28:28;;;;;;;26.23;13.03;;;;;;;11.85;81.66;101629.19;1844899;77;27679;-61
2022/10/31 07:30:57;;;;;;;23.75;13.83;;;;;;;11.96;81.82;101625.61;1846215;77;25455;-61
2022/10/31 07:33:26;;;;;;;22.40;12.47;;;;;;;12.00;81.27;101619.03;1845647;77;25802;-61
2022/10/31 07:36:05;;;;;;;24.37;13.65;;;;;;;12.09;81.29;101623.31;1823668;77;25910;-61
2022/10/31 07:38:32;;;;;;;20.27;12.50;;;;;;;12.14;80.90;101620.61;1845980;77;25785;-60
2022/10/31 07:41:04;;;;;;;22.80;13.00;;;;;;;12.21;80.73;101623.64;1845437;77;27501;-61
2022/10/31 07:43:32;;;;;;;23.15;14.63;;;;;;;12.32;80.58;101634.92;1847924;77;25975;-63
2022/10/31 07:46:00;;;;;;;20.45;12.20;;;;;;;12.46;80.57;101635.97;1845981;77;25605;-61
2022/10/31 07:48:43;;;;;;;20.23;11.85;;;;;;;12.57;80.10;101641.81;1846184;77;25791;-62
2022/10/31 07:51:28;;;;;;;19.92;13.10;;;;;;;12.66;79.72;101634.80;1832810;77;25884;-61
2022/10/31 07:54:01;;;;;;;23.77;13.20;;;;;;;12.98;79.10;101634.78;1796182;77;27479;-62
2022/10/31 07:56:33;;;;;;;22.02;13.15;;;;;;;12.98;79.10;101634.78;1828519;77;25690;-62
2022/10/31 07:59:01;;;;;;;27.52;14.23;;;;;;;13.19;78.41;101642.01;1827243;78;25784;-62
2022/10/31 08:01:28;;;;;;;27.75;13.45;;;;;;;13.35;77.80;101638.00;1827075;78;25793;-62
2022/10/31 08:04:15;;;;;;;27.20;13.50;;;;;;;13.55;77.60;101639.84;1762939;81;25811;-61
2022/10/31 08:07:02;;;;;;;29.30;13.25;;;;;;;13.86;77.17;101636.27;1760657;81;27605;-64
2022/10/31 08:09:34;;;;;;;27.13;13.48;;;;;;;14.13;75.95;101642.90;1785738;77;25767;-62
2022/10/31 08:12:04;;;;;;;35.80;15.00;;;;;;;14.27;74.67;101641.17;1862050;77;25637;-62
2022/10/31 08:14:31;;;;;;;26.10;12.68;;;;;;;14.51;74.59;101640.79;1862428;77;25903;-62
2022/10/31 08:16:59;;;;;;;30.60;14.87;;;;;;;14.81;74.77;101634.90;1862255;77;25737;-62
2022/10/31 08:19:28;;;;;;;24.90;12.43;;;;;;;15.10;74.10;101639.96;1861297;77;28225;-62
2022/10/31 08:21:55;;;;;;;20.17;10.32;;;;;;;15.40;72.80;101641.61;1831465;77;25878;-62
2022/10/31 08:24:22;;;;;;;19.95;10.63;;;;;;;15.65;72.19;101641.44;1862384;77;25476;-62
2022/10/31 08:26:52;;;;;;;20.12;10.63;;;;;;;15.91;69.21;101648.09;1862308;77;25776;-62
2022/10/31 08:29:19;;;;;;;21.23;10.60;;;;;;;16.06;64.33;101638.95;1862798;77;25763;-62
2022/10/31 08:31:46;;;;;;;19.77;10.00;;;;;;;16.10;64.69;101641.21;1862129;77;27521;-62
2022/10/31 08:34:30;;;;;;;;;;;;;;;16.20;62.28;101641.14;1766538;80;25819;-63
2022/10/31 08:37:20;;;;;;;16.62;10.38;;;;;;;16.21;62.72;101651.52;1842640;77;25595;-62
2022/10/31 08:39:47;;;;;;;21.30;12.35;;;;;;;16.37;63.67;101648.98;1862651;77;27582;-62
2022/10/31 08:42:14;;;;;;;20.35;11.57;;;;;;;16.51;61.65;101644.02;1862347;77;25640;-62
2022/10/31 08:44:41;;;;;;;21.45;11.33;;;;;;;16.66;61.99;101649.77;1862528;77;27499;-62
2022/10/31 08:47:09;;;;;;;26.80;11.90;;;;;;;16.95;61.49;101644.11;1862354;77;25694;-62
2022/10/31 08:49:39;;;;;;;25.27;11.30;;;;;;;17.43;61.18;101651.95;1862152;77;25645;-62
2022/10/31 08:52:07;;;;;;;17.25;11.50;;;;;;;18.27;60.22;101644.91;1828524;77;25999;-62
2022/10/31 08:54:38;;;;;;;19.25;11.40;;;;;;;19.16;55.14;101640.25;1829147;77;25418;-62
2022/10/31 08:57:10;;;;;;;17.87;11.18;;;;;;;19.69;54.80;101642.53;1830973;77;27629;-62
2022/10/31 08:59:39;;;;;;;19.27;11.28;;;;;;;20.28;51.73;101639.41;1861841;77;25908;-63
2022/10/31 09:02:08;;;;;;;18.05;10.58;;;;;;;20.67;49.70;101647.18;1818184;77;25764;-63
2022/10/31 09:04:36;;;;;;;14.28;9.98;;;;;;;20.93;52.01;101654.19;1861249;76;26566;-63
2022/10/31 09:07:04;;;;;;;17.42;10.15;;;;;;;21.45;49.69;101651.66;1825905;77;26135;-63
2022/10/31 09:09:31;;;;;;;13.70;9.55;;;;;;;21.82;47.34;101658.99;1854374;76;27332;-63
2022/10/31 09:11:58;;;;;;;18.27;9.43;;;;;;;22.18;45.71;101652.72;1854656;77;25653;-63
2022/10/31 09:14:42;;;;;;;17.73;10.18;;;;;;;22.43;46.68;101655.14;1835436;77;25817;-62
2022/10/31 09:17:11;;;;;;;15.03;9.35;;;;;;;22.98;44.27;101656.00;1852437;76;25926;-62
2022/10/31 09:19:42;;;;;;;13.25;8.68;;;;;;;23.37;43.70;101656.02;1851884;77;25737;-63
2022/10/31 09:22:10;;;;;;;15.40;8.83;;;;;;;23.72;43.90;101653.81;1837722;77;27462;-63
2022/10/31 09:24:37;;;;;;;13.95;9.03;;;;;;;24.05;43.21;101659.52;1830355;77;25936;-63
2022/10/31 09:27:04;;;;;;;15.93;8.40;;;;;;;23.95;41.88;101659.05;1841644;77;25723;-62
2022/10/31 09:29:32;;;;;;;12.70;8.43;;;;;;;24.31;41.76;101655.69;1838098;77;25840;-63
2022/10/31 09:32:00;;;;;;;13.00;8.55;;;;;;;24.65;40.73;101658.86;1843797;77;25974;-64
2022/10/31 09:34:32;;;;;;;14.15;7.65;;;;;;;24.69;40.12;101661.55;1853972;77;27459;-63
2022/10/31 09:37:03;;;;;;;15.68;7.25;;;;;;;24.87;40.07;101656.48;1853146;77;25842;-63
2022/10/31 09:39:30;;;;;;;14.35;7.65;;;;;;;25.22;40.84;101659.89;1854304;77;25798;-62
2022/10/31 09:42:24;;;;;;;13.03;7.55;;;;;;;25.37;39.70;101663.77;1844279;77;26483;-62
2022/10/31 09:45:05;;;;;;;11.28;7.33;;;;;;;25.87;39.22;101661.89;1837278;77;25676;-63
2022/10/31 09:48:07;;;;;;;12.03;7.17;;;;;;;25.50;36.33;101661.59;1839680;77;28234;-63
2022/10/31 09:51:05;;;;;;;15.88;6.50;;;;;;;25.03;35.89;101661.56;1841548;77;25786;-63
2022/10/31 09:53:51;;;;;;;11.70;6.05;;;;;;;24.39;36.20;101662.38;1851095;77;26035;-63
2022/10/31 09:56:23;;;;;;;12.65;7.25;;;;;;;23.97;36.49;101661.58;1840386;76;25792;-63
2022/10/31 09:59:00;;;;;;;12.58;6.15;;;;;;;23.88;37.85;101655.39;1819622;78;26485;-62
2022/10/31 10:01:41;;;;;;;18.25;7.17;;;;;;;23.67;37.07;101657.68;1820002;78;27435;-63
2022/10/31 10:04:43;;;;;;;14.00;6.15;;;;;;;23.52;37.26;101654.54;1829544;77;25714;-63
2022/10/31 10:07:25;;;;;;;;;;;;;;;23.82;37.51;101650.69;1855571;77;25479;-63
2022/10/31 10:10:26;;;;;;;10.75;6.00;;;;;;;24.55;36.26;101654.28;1854273;77;25890;-63
2022/10/31 10:13:47;;;;;;;8.35;5.55;;;;;;;24.78;35.21;101658.60;1850254;76;25893;-63
2022/10/31 10:16:38;;;;;;;11.00;5.75;;;;;;;25.11;36.37;101655.02;1854472;76;27662;-63
2022/10/31 10:19:25;;;;;;;11.75;6.33;;;;;;;25.36;35.20;101664.86;1853907;77;25273;-63
2022/10/31 10:22:41;;;;;;;8.25;5.62;;;;;;;26.12;34.63;101663.11;1854472;77;25714;-63
2022/10/31 10:25:34;;;;;;;9.00;5.85;;;;;;;26.81;34.24;101658.72;1741451;81;26237;-63
2022/10/31 10:28:22;;;;;;;11.68;5.97;;;;;;;27.46;33.92;101662.23;1691862;84;25827;-63
2022/10/31 10:31:03;;;;;;;13.78;6.90;;;;;;;27.79;33.13;101656.90;1691720;84;27567;-63
2022/10/31 10:33:50;;;;;;;12.10;6.30;;;;;;;28.30;31.99;101658.93;1691920;84;25798;-63
2022/10/31 10:36:28;;;;;;;7.83;4.80;;;;;;;28.68;30.95;101659.13;1692037;84;25733;-64
2022/10/31 10:39:17;;;;;;;11.08;5.20;;;;;;;28.94;28.31;101660.37;1691462;83;25312;-63
2022/10/31 10:47:37;;;;;;;9.15;5.30;;;;;;;28.60;30.00;101657.26;1691889;84;25845;-62
2022/10/31 10:50:36;;;;;;;11.38;5.45;;;;;;;28.73;29.21;101647.38;1693035;84;25773;-63
2022/10/31 10:54:00;;;;;;;7.85;5.00;;;;;;;28.96;29.36;101639.66;1743991;82;25817;-63
2022/10/31 10:56:39;;;;;;;7.75;4.95;;;;;;;28.98;29.28;101634.73;1744774;81;26538;-63
2022/10/31 10:59:11;;;;;;;11.03;4.85;;;;;;;29.37;28.05;101634.29;1744179;82;27847;-63
2022/10/31 11:01:41;;;;;;;8.23;5.05;;;;;;;29.34;28.40;101631.47;1713119;83;25907;-63
2022/10/31 11:04:21;;;;;;;11.48;5.28;;;;;;;29.56;28.44;101636.37;1713260;82;25811;-63
2022/10/31 11:07:08;;;;;;;8.93;4.95;;;;;;;29.68;27.97;101628.03;1743430;82;26158;-63
2022/10/31 11:09:37;;;;;;;8.15;4.40;;;;;;;29.79;27.74;101620.79;1743197;81;25929;-63
2022/10/31 11:12:24;;;;;;;10.32;5.03;;;;;;;29.82;28.31;101621.14;1712971;83;27500;-63
2022/10/31 11:14:59;;;;;;;8.73;4.55;;;;;;;29.95;26.81;101625.59;1739746;82;25669;-64
2022/10/31 11:17:34;;;;;;;9.25;4.95;;;;;;;29.56;26.67;101627.22;1713049;83;25841;-64
2022/10/31 11:20:15;;;;;;;6.28;4.60;;;;;;;29.14;26.94;101612.94;1715505;82;25741;-64
2022/10/31 11:22:46;;;;;;;7.65;4.97;;;;;;;28.94;27.27;101609.97;1708656;83;25685;-64
2022/10/31 11:25:26;;;;;;;21.45;5.42;;;;;;;28.02;27.40;101622.98;1725655;81;27459;-62
2022/10/31 11:28:07;;;;;;;9.33;5.05;;;;;;;27.51;28.88;101612.67;1712342;83;26543;-62
2022/10/31 11:30:45;;;;;;;8.80;5.15;;;;;;;27.37;29.12;101605.55;1731061;81;25792;-62
2022/10/31 11:33:20;;;;;;;12.73;4.45;;;;;;;27.22;29.57;101612.29;1712413;83;26651;-62
2022/10/31 11:35:49;;;;;;;14.58;6.05;;;;;;;26.93;29.83;101606.94;1731142;81;25740;-65
2022/10/31 11:38:20;;;;;;;11.83;4.67;;;;;;;26.85;29.85;101606.67;1712548;83;27424;-64
2022/10/31 11:40:58;;;;;;;7.45;4.75;;;;;;;26.19;30.22;101604.64;1731277;81;25787;-64
2022/10/31 11:43:27;;;;;;;9.05;5.00;;;;;;;25.82;30.79;101603.84;1710696;83;25761;-64
2022/10/31 11:45:54;;;;;;;10.00;4.22;;;;;;;25.72;30.98;101601.55;1731237;82;26297;-64
2022/10/31 11:48:24;;;;;;;15.23;5.15;;;;;;;25.53;31.49;101606.59;1712604;83;25749;-64
2022/10/31 11:50:59;;;;;;;11.08;5.83;;;;;;;25.23;31.52;101599.63;1721687;82;27481;-64
2022/10/31 11:53:34;;;;;;;13.78;4.55;;;;;;;24.59;32.15;101612.07;1743239;82;25470;-64
2022/10/31 11:56:16;;;;;;;9.18;5.17;;;;;;;24.18;33.17;101601.52;1713155;82;25714;-62